AKDT,Max TemperatureF,Mean TemperatureF,Min TemperatureF,Max Dew PointF,MeanDew PointF,Min DewpointF,Max Humidity, Mean Humidity, Min Humidity, Max Sea Level PressureIn, Mean Sea Level PressureIn, Min Sea Level PressureIn, Max VisibilityMiles, Mean VisibilityMiles, Min VisibilityMiles, Max Wind SpeedMPH, Mean Wind SpeedMPH, Max Gust SpeedMPH,PrecipitationIn, CloudCover, Events, WindDirDegrees
2013-8-1,75,64,53,57,52,48,82,67,50,30.05,30.02,29.97,10,10,10,9,4,,0.00,0,,289
2013-8-2,69,61,53,55,52,48,88,74,56,30.12,30.06,30.01,10,10,10,10,5,,0.00,1,,276
2013-8-3,64,58,53,54,51,48,88,80,68,30.21,30.18,30.12,10,9,2,8,4,,0.00,6,,261
2013-8-4,68,60,51,55,52,46,94,80,60,30.16,30.11,30.06,10,10,8,10,4,,0.00,5,,278
2013-8-5,64,60,55,57,55,52,94,84,72,30.09,30.07,30.05,10,10,3,8,3,,0.00,7,,292
2013-8-6,66,60,55,55,54,52,94,81,68,30.08,30.05,30.02,10,10,4,7,3,,0.00,7,,313
2013-8-7,73,62,51,57,53,48,94,76,57,30.02,29.99,29.96,10,8,0,9,2,,0.00,3,,324
2013-8-8,62,60,57,57,55,52,94,85,72,30.08,30.02,29.97,10,9,3,12,2,,0.18,8,,316
2013-8-9,66,60,55,57,54,52,94,83,68,30.09,30.08,30.06,10,7,0,10,4,,0.02,7,,294
2013-8-10,68,60,51,55,51,48,88,76,60,30.07,30.05,30.02,10,10,7,8,2,,0.00,1,,306
2013-8-11,73,62,51,55,51,46,88,70,50,30.05,30.02,29.98,10,10,10,7,2,,0.00,0,,313
2013-8-12,73,63,53,57,52,46,88,72,53,30.03,30.00,29.97,10,10,4,9,2,,0.00,1,,272
2013-8-13,60,58,55,54,53,52,88,83,77,30.10,30.07,30.03,10,10,10,7,2,,0.00,7,,297
2013-8-14,71,61,51,55,53,48,94,77,57,30.04,29.88,29.80,10,8,0,8,2,,0.00,5,,312
2013-8-15,60,58,55,55,53,48,94,84,72,29.93,29.87,29.81,10,9,5,7,2,,0.65,4,,312
2013-8-16,66,60,55,57,54,52,94,85,68,29.93,29.88,29.84,10,10,1,7,2,,0.08,7,,39
2013-8-17,62,60,57,55,54,52,88,82,68,29.84,29.78,29.70,10,9,5,17,8,24,0.52,7,,115
2013-8-18,57,55,53,52,50,46,94,84,77,29.80,29.79,29.74,10,9,5,12,6,,1.10,8,,110
2013-8-19,55,52,50,50,48,46,88,82,77,30.04,29.88,29.75,10,10,7,12,6,,0.12,7,,96
2013-8-20,62,58,53,52,50,48,88,81,68,30.19,30.14,30.04,10,10,10,10,4,,0.04,6,,109
2013-8-21,60,56,53,52,49,48,88,78,63,30.17,30.03,29.91,10,9,5,13,6,,0.21,7,,72
2013-8-22,57,55,53,54,51,48,94,87,82,29.93,29.91,29.89,10,10,1,7,2,,0.03,7,,83
2013-8-23,64,58,51,54,50,48,94,82,64,29.89,29.78,29.70,10,7,0,9,3,,0.00,5,,263
2013-8-24,60,56,53,54,51,50,94,84,68,29.71,29.70,29.68,10,10,10,13,3,18,0.01,7,,94
2013-8-25,62,58,55,54,52,48,88,77,63,29.80,29.75,29.70,10,10,10,15,9,22,0.00,7,,116
2013-8-26,64,60,55,54,52,48,94,81,64,29.81,29.76,29.70,10,10,10,10,5,,0.02,7,,108
2013-8-27,57,55,51,54,51,48,94,86,82,29.91,29.81,29.74,10,10,3,8,3,,0.08,6,,111
2013-8-28,64,56,48,54,48,46,93,79,56,29.91,29.89,29.87,10,6,0,8,4,,0.00,5,Fog,22
2013-8-29,69,58,48,54,49,46,93,75,52,29.87,29.79,29.74,10,10,10,7,3,,0.00,3,,66
2013-8-30,66,60,53,55,53,50,94,79,60,30.07,29.95,29.78,10,9,7,13,3,17,0.21,7,,124
2013-8-31,64,58,51,55,53,46,88,81,68,30.11,30.07,29.98,10,10,8,9,3,,0.11,6,,121